Black Eagle — WDJJ — position and weather

sailwx.info

Track history (hours):
 
Tides and Currents Weather Stations Pressure Air Temp Water Temp Dewpoint Dewpoint Depression Visibility Wind Speed Wind Dir Waves Ship Positions

Black Eagle

Owner: Sealift Inc., Oyster Bay, NY. More information available from US FCC via Universal Licensing System and Coast Guard Vessel Documentation Center.

Last reported at 2015-Aug-21 19:00 UTC. Time now 2015-Sep-04 16:40 UTC.
Position N 56°24' W 156°00'.
Warning: this ship's position is 13 days out of date.

Length 40 m; draft 9 m.

MMSI: 369542000.

Wind from 270 at 15 knots

Waves 0.5 meters (2 feet)

Barometer 1009.0 mb
Air temperature 16.1 ° C
Visibility: greater than 10.8 NM
Dewpoint 13.7 ° C
Water temperature 11.7 ° C

Date/timePositionNaut miles runAvg speedWind from/ knotsBaromVisibWave heightAir tempDewpointWater temp
2015-Aug-21 19:00N 56°24' W 156°00'   270 / 151009.010.8 0.516.113.711.7
2015-Aug-13 15:06N 38°26' W 124°20'815.5
2015-Aug-13 14:33N 38°23' W 124°10'1615.6
2015-Aug-13 13:33N 38°18' W 123°51'1515.2
2015-Aug-13 12:33N 38°13' W 123°33'1514.6
2015-Aug-13 11:33N 38°06' W 123°16'1514.8
2015-Aug-13 10:33N 37°56' W 123°03'1515.2
2015-Aug-13 09:34N 37°48' W 122°46'1211.7
2015-Aug-13 08:33N 37°48' W 122°31'8 7.5
2015-Aug-13 07:34N 37°47' W 122°22'1 1.3
2015-Aug-13 06:33N 37°46' W 122°20'0 0.0
2015-Aug-13 05:33N 37°46' W 122°20'0 0.0
2015-Aug-13 04:32N 37°46' W 122°20'0 0.0
2015-Aug-13 03:32N 37°46' W 122°20'0 0.0
2015-Aug-13 02:32N 37°46' W 122°20'0 0.1
2015-Aug-13 01:31N 37°46' W 122°20'0 0.2
2015-Aug-13 00:31N 37°46' W 122°20'0 0.1
2015-Aug-12 23:33N 37°46' W 122°20'6 6.5
2015-Aug-12 22:33N 37°52' W 122°25'3 2.5
2015-Aug-12 21:22N 37°54' W 122°23'1 1.0
2015-Aug-12 20:32N 37°54' W 122°22'1 0.5
2015-Aug-12 19:32N 37°55' W 122°22'0 0.0
2015-Aug-12 18:31N 37°55' W 122°22'0 0.0
2015-Aug-12 17:31N 37°55' W 122°22'0 0.0
2015-Aug-12 16:33N 37°55' W 122°22'0 0.0
2015-Aug-12 15:33N 37°55' W 122°22'0 0.0
2015-Aug-12 14:32N 37°55' W 122°22'0 0.0
2015-Aug-12 13:32N 37°55' W 122°22'0 0.0
2015-Aug-12 12:32N 37°55' W 122°22'0 0.0
2015-Aug-12 11:31N 37°55' W 122°22'0 0.0
2015-Aug-12 10:31N 37°55' W 122°22'0 0.0
2015-Aug-12 09:33N 37°55' W 122°22'0 0.0
2015-Aug-12 08:33N 37°55' W 122°22'0 0.0
2015-Aug-12 07:32N 37°55' W 122°22'0 0.0
2015-Aug-12 06:32N 37°55' W 122°22'0 0.0
2015-Aug-12 05:32N 37°55' W 122°22'0 0.0
2015-Aug-12 04:31N 37°55' W 122°22'0 0.0
2015-Aug-12 03:31N 37°55' W 122°22'0 0.0
2015-Aug-12 02:33N 37°55' W 122°22'0 0.0
2015-Aug-12 01:33N 37°55' W 122°22'0 0.0
2015-Aug-12 00:32N 37°55' W 122°22'0 0.0
2015-Aug-11 23:32N 37°55' W 122°22'0 0.0
2015-Aug-11 22:32N 37°55' W 122°22'0 0.0
2015-Aug-11 21:31N 37°55' W 122°22'0 0.0
2015-Aug-11 20:31N 37°55' W 122°22'0 0.0
2015-Aug-11 19:33N 37°55' W 122°22'  
Track history (hours):
 
Tides and Currents Weather Stations Pressure Air Temp Water Temp Dewpoint Dewpoint Depression Visibility Wind Speed Wind Dir Waves Ship Positions

Black Eagle

Owner: Sealift Inc., Oyster Bay, NY. More information available from US FCC via Universal Licensing System and Coast Guard Vessel Documentation Center.

Last reported at 2015-Aug-21 19:00 UTC. Time now 2015-Sep-04 16:40 UTC.
Position N 56°24' W 156°00'.
Warning: this ship's position is 13 days out of date.

Length 40 m; draft 9 m.

MMSI: 369542000.

Wind from 270 at 15 knots

Waves 0.5 meters (2 feet)

Barometer 1009.0 mb
Air temperature 16.1 ° C
Visibility: greater than 10.8 NM
Dewpoint 13.7 ° C
Water temperature 11.7 ° C

Date/timePositionNaut miles runAvg speedWind from/ knotsBaromVisibWave heightAir tempDewpointWater temp
2015-Aug-21 19:00N 56°24' W 156°00'   270 / 151009.010.8 0.516.113.711.7
2015-Aug-13 15:06N 38°26' W 124°20'815.5
2015-Aug-13 14:33N 38°23' W 124°10'1615.6
2015-Aug-13 13:33N 38°18' W 123°51'1515.2
2015-Aug-13 12:33N 38°13' W 123°33'1514.6
2015-Aug-13 11:33N 38°06' W 123°16'1514.8
2015-Aug-13 10:33N 37°56' W 123°03'1515.2
2015-Aug-13 09:34N 37°48' W 122°46'1211.7
2015-Aug-13 08:33N 37°48' W 122°31'8 7.5
2015-Aug-13 07:34N 37°47' W 122°22'1 1.3
2015-Aug-13 06:33N 37°46' W 122°20'0 0.0
2015-Aug-13 05:33N 37°46' W 122°20'0 0.0
2015-Aug-13 04:32N 37°46' W 122°20'0 0.0
2015-Aug-13 03:32N 37°46' W 122°20'0 0.0
2015-Aug-13 02:32N 37°46' W 122°20'0 0.1
2015-Aug-13 01:31N 37°46' W 122°20'0 0.2
2015-Aug-13 00:31N 37°46' W 122°20'0 0.1
2015-Aug-12 23:33N 37°46' W 122°20'6 6.5
2015-Aug-12 22:33N 37°52' W 122°25'3 2.5
2015-Aug-12 21:22N 37°54' W 122°23'1 1.0
2015-Aug-12 20:32N 37°54' W 122°22'1 0.5
2015-Aug-12 19:32N 37°55' W 122°22'0 0.0
2015-Aug-12 18:31N 37°55' W 122°22'0 0.0
2015-Aug-12 17:31N 37°55' W 122°22'0 0.0
2015-Aug-12 16:33N 37°55' W 122°22'0 0.0
2015-Aug-12 15:33N 37°55' W 122°22'0 0.0
2015-Aug-12 14:32N 37°55' W 122°22'0 0.0
2015-Aug-12 13:32N 37°55' W 122°22'0 0.0
2015-Aug-12 12:32N 37°55' W 122°22'0 0.0
2015-Aug-12 11:31N 37°55' W 122°22'0 0.0
2015-Aug-12 10:31N 37°55' W 122°22'0 0.0
2015-Aug-12 09:33N 37°55' W 122°22'0 0.0
2015-Aug-12 08:33N 37°55' W 122°22'0 0.0
2015-Aug-12 07:32N 37°55' W 122°22'0 0.0
2015-Aug-12 06:32N 37°55' W 122°22'0 0.0
2015-Aug-12 05:32N 37°55' W 122°22'0 0.0
2015-Aug-12 04:31N 37°55' W 122°22'0 0.0
2015-Aug-12 03:31N 37°55' W 122°22'0 0.0
2015-Aug-12 02:33N 37°55' W 122°22'0 0.0
2015-Aug-12 01:33N 37°55' W 122°22'0 0.0
2015-Aug-12 00:32N 37°55' W 122°22'0 0.0
2015-Aug-11 23:32N 37°55' W 122°22'0 0.0
2015-Aug-11 22:32N 37°55' W 122°22'0 0.0
2015-Aug-11 21:31N 37°55' W 122°22'0 0.0
2015-Aug-11 20:31N 37°55' W 122°22'0 0.0
2015-Aug-11 19:33N 37°55' W 122°22'  

Dump ship's entire track history